• Join FlightAware (Why Join?)
  • Login
  • US Flag 
Rudolph Flight #1: Arrived! 
10:21AM EST


 

Airport Tracker/Info


-or-


 

Live Flight TrackerFlight Track Log ✈ AFL150 ✈ 16-Jul-2013 ✈ UUEE / SVO - MUHA / HAV

Flight Track Log - Related Links

Times and Time Zones

All times are in EDT time to prevent confusion due to time zone crossing. See the AFL150 flight status page for this flight to view local times or setup timezone preferences in your user account.

Time Position Orientation Groundspeed Altitude Reporting Facility
EDT Latitude Longitude Course Direction KTS MPH feet Rate Location/Type
06:40AM 55.9800 37.4720 75° East 178 205 2,200  Level FlightAware
06:40AM 55.9860 37.5190 77° East 209 241 2,700 1,080 Climbing FlightAware
06:41AM 55.9930 37.5640 74° East 237 273 3,200 1,200 Climbing FlightAware
06:41AM 56.0010 37.6140 74° East 267 307 3,700 1,500 Climbing FlightAware
06:41AM 56.0040 37.6350 76° East 270 311 4,100 2,400 Climbing FlightAware
06:42AM 56.0140 37.6640 58° Northeast 276 318 4,700 2,400 Climbing FlightAware
06:42AM 56.0290 37.6830 35° Northeast 278 320 5,300 2,160 Climbing FlightAware
06:42AM 56.0490 37.6910 13° North 283 326 5,800 1,320 Climbing FlightAware
06:43AM 56.0780 37.6690 337° Northwest 280 322 6,200 900 Climbing FlightAware
06:43AM 56.0910 37.6290 300° West 278 320 6,500 780 Climbing FlightAware
06:43AM 56.1070 37.5800 300° West 282 325 6,800 600 Climbing FlightAware
06:44AM 56.1330 37.5290 312° West 282 325 7,100 1,200 Climbing FlightAware
06:44AM 56.1550 37.4850 312° West 285 328 7,900 2,040 Climbing FlightAware
06:44AM 56.1640 37.4670 312° West 287 330 8,300 780 Climbing FlightAware
06:45AM 56.1880 37.4160 310° West 288 331 8,500 720 Climbing FlightAware
06:46AM 56.2020 37.3880 312° West 290 334 9,100 2,820 Climbing FlightAware
06:46AM 56.2180 37.2500 282° West 318 366 11,700 2,940 Climbing FlightAware
06:47AM 56.2190 37.1700 271° West 324 373 12,700 1,920 Climbing FlightAware
06:47AM 56.2090 37.0600 261° West 328 377 14,300 1,920 Climbing FlightAware
06:48AM 56.1990 36.9610 260° West 341 392 15,400 1,980 Climbing FlightAware
06:49AM 56.1670 36.8200 248° West 347 399 17,300 2,040 Climbing FlightAware
06:50AM 56.1320 36.7280 236° Southwest 356 410 18,400 1,680 Climbing FlightAware
06:50AM 56.0910 36.6200 236° Southwest 370 426 19,600 1,620 Climbing FlightAware
06:51AM 56.0490 36.5110 235° Southwest 379 436 20,700 1,560 Climbing FlightAware
06:52AM 56.0090 36.4090 235° Southwest 386 444 21,800 1,620 Climbing FlightAware
06:52AM 55.9620 36.2970 233° Southwest 393 452 23,000 1,380 Climbing FlightAware
06:53AM 55.9280 36.2010 238° Southwest 398 458 23,700 1,140 Climbing FlightAware
06:53AM 55.9230 36.1540 259° West 392 451 24,000 1,920 Climbing FlightAware
06:54AM 55.9370 36.0580 285° West 376 433 24,800 1,860 Climbing FlightAware
06:54AM 55.9860 35.9570 311° West 368 423 26,000 1,380 Climbing FlightAware
06:55AM 56.0330 35.8680 313° West 374 430 26,800 1,020 Climbing FlightAware
06:56AM 56.0850 35.7710 314° West 383 441 27,500 960 Climbing FlightAware
06:56AM 56.1350 35.6750 313° West 391 450 28,200 960 Climbing FlightAware
06:57AM 56.1890 35.5730 314° West 398 458 28,900 900 Climbing FlightAware
06:58AM 56.2320 35.5230 327° Northwest 399 459 29,300 720 Climbing FlightAware
06:58AM 56.2940 35.4890 343° North 408 470 29,700 660 Climbing FlightAware
06:59AM 56.3810 35.4380 342° North 415 478 30,300 660 Climbing FlightAware
07:01AM 56.6250 35.2980 342° North 439 505 31,800 720 Climbing FlightAware
07:02AM 56.7120 35.2470 342° North 440 506 32,500 840 Climbing FlightAware
07:02AM 56.7900 35.2010 342° North 443 510 33,000 600 Climbing FlightAware
07:03AM 56.8700 35.1540 342° North 450 518 33,300 420 Climbing FlightAware
07:04AM 56.9900 35.0820 342° North 461 531 33,700 420 Climbing FlightAware
07:05AM 57.0600 35.0400 342° North 468 539 34,000 180 Climbing FlightAware
07:05AM 57.1550 34.9830 342° North 479 551 34,000  Level FlightAware
07:06AM 57.2490 34.9260 342° North 481 554 34,000  Level FlightAware
07:09AM 57.3947 34.5342 305° West  Level Estimated
07:10AM 57.4586 34.3604 304° West  Level Estimated
07:11AM 57.5223 34.1859 304° West  Level Estimated
07:12AM 57.5857 34.0109 304° West  Level Estimated
07:13AM 57.6489 33.8352 304° West  Level Estimated
07:13AM 58.1470 34.3420 304° West 481 554 34,000  Level FlightAware
07:14AM 57.7118 33.6590 304° West  Level Estimated
07:15AM 58.3560 34.0500 304° West 481 554 34,000  Level FlightAware
07:16AM 58.2801 33.9675 304° West  Level Estimated
07:17AM 58.4720 33.8720 321° Northwest 479 551 34,000  Level FlightAware
07:17AM 58.5480 33.7550 321° Northwest 479 551 34,000  Level FlightAware
07:18AM 58.5950 33.6810 321° Northwest 478 550 34,000  Level FlightAware
07:19AM 58.6700 33.5620 320° Northwest 477 549 34,000  Level FlightAware
07:20AM 58.7390 33.4510 320° Northwest 477 549 34,000  Level FlightAware
07:20AM 58.7990 33.3330 314° West 472 543 34,000  Level FlightAware
07:22AM 58.9910 32.9620 315° West 466 536 34,000  Level FlightAware
07:23AM 59.0730 32.8040 315° West 449 517 34,000  Level FlightAware
07:24AM 59.1280 32.6960 315° West 448 516 34,000  Level FlightAware
07:24AM 59.1940 32.5650 315° West 446 513 34,000  Level FlightAware
07:25AM 59.2420 32.4690 314° West 446 513 34,000  Level FlightAware
07:26AM 59.3250 32.3010 314° West 449 517 34,000  Level FlightAware
07:27AM 59.3810 32.1880 314° West 453 521 34,000  Level FlightAware
07:27AM 59.4360 32.0500 308° West 450 518 34,000  Level FlightAware
07:28AM 59.4780 31.9110 301° West 447 514 34,000  Level FlightAware
07:29AM 59.5210 31.7200 294° West 446 513 34,000  Level FlightAware
07:29AM 59.5530 31.5770 294° West 446 513 34,000  Level FlightAware
07:31AM 59.6170 31.2770 293° West 444 511 34,000  Level FlightAware
07:32AM 59.6610 31.0700 293° West 441 507 34,000  Level FlightAware
07:32AM 59.7050 30.8640 293° West 442 509 34,000  Level FlightAware
07:33AM 59.7360 30.7160 293° West 441 507 34,000  Level FlightAware
07:34AM 59.7630 30.5620 289° West 437 503 34,000  Level FlightAware
07:35AM 59.7820 30.3920 283° West 438 504 34,000  Level FlightAware
07:35AM 59.7870 30.2670 275° West 438 504 34,000  Level FlightAware
07:36AM 59.7820 30.0880 267° West 440 506 34,000  Level FlightAware
07:36AM 59.7640 29.9300 257° West 439 505 34,000  Level FlightAware
07:37AM 59.7470 29.7940 256° West 437 503 34,000  Level FlightAware
07:38AM 59.7280 29.6430 256° West 435 501 34,000  Level FlightAware
07:38AM 59.7060 29.4710 256° West 434 499 34,000  Level FlightAware
07:39AM 59.6900 29.3530 255° West 433 498 34,000  Level FlightAware
07:40AM 59.6680 29.1850 256° West 433 498 34,000  Level FlightAware
07:40AM 59.6480 29.0280 256° West 432 497 34,000 360 Level FlightAware
07:41AM 59.6320 28.8740 258° West 431 496 34,500 660 Climbing FlightAware
07:42AM 59.6320 28.7200 270° West 432 497 34,900 600 Climbing FlightAware
07:42AM 59.6460 28.5450 279° West 433 498 35,400 720 Climbing FlightAware
07:43AM 59.6710 28.3730 286° West 432 497 36,000 360 Climbing FlightAware
07:44AM 59.6930 28.2200 286° West 439 505 36,000  Level FlightAware
07:44AM 59.7140 28.0770 286° West 440 506 36,000  Level FlightAware
07:45AM 59.7370 27.9090 285° West 439 505 36,000  Level FlightAware
07:46AM 59.7560 27.7730 286° West 438 504 36,000  Level FlightAware
07:46AM 59.7780 27.6170 286° West 437 503 36,000  Level FlightAware
07:47AM 59.7990 27.4630 285° West 434 499 36,000  Level FlightAware
07:48AM 59.8200 27.3100 285° West 431 496 36,000  Level FlightAware
07:48AM 59.8380 27.1740 285° West 430 495 36,000  Level FlightAware
07:49AM 59.8620 26.9930 285° West 431 496 36,000  Level FlightAware
07:50AM 59.8820 26.8430 285° West 430 495 36,000  Level FlightAware
07:51AM 59.9040 26.6730 285° West 431 496 36,000  Level FlightAware
07:51AM 59.9240 26.5180 285° West 435 501 36,000  Level FlightAware
07:52AM 59.9460 26.3640 286° West 437 503 36,000  Level FlightAware
07:53AM 59.9820 26.2040 294° West 439 505 36,000  Level FlightAware
07:53AM 60.0200 26.0800 302° West 441 507 36,000  Level FlightAware
07:54AM 60.0670 25.9280 302° West 439 505 36,000  Level FlightAware
07:55AM 60.1080 25.7890 301° West 438 504 36,000  Level FlightAware
07:55AM 60.1550 25.6350 302° West 436 502 36,000  Level FlightAware
07:56AM 60.1950 25.4990 301° West 434 499 36,000  Level FlightAware
07:57AM 60.2410 25.3480 302° West 434 499 36,000  Level FlightAware
07:57AM 60.2820 25.2080 301° West 434 499 36,000  Level FlightAware
07:58AM 60.3270 25.0560 301° West 434 499 36,000  Level FlightAware
07:59AM 60.3670 24.9180 300° West 433 498 36,000  Level FlightAware
08:00AM 60.4100 24.7720 301° West 433 498 36,000  Level FlightAware
08:00AM 60.4550 24.6170 301° West 434 499 36,000  Level FlightAware
08:01AM 60.4940 24.4790 300° West 434 499 36,000  Level FlightAware
08:02AM 60.5380 24.3240 300° West 434 499 36,000  Level FlightAware
08:02AM 60.5790 24.1820 300° West 434 499 36,000  Level FlightAware
08:03AM 60.6200 24.0340 300° West 435 501 36,000  Level FlightAware
08:04AM 60.6630 23.8790 300° West 434 499 36,000  Level FlightAware
08:04AM 60.7030 23.7370 300° West 434 499 36,000  Level FlightAware
08:05AM 60.7390 23.6080 300° West 434 499 36,000  Level FlightAware
08:06AM 60.7790 23.4600 299° West 435 501 36,000  Level FlightAware
08:06AM 60.8180 23.3170 299° West 435 501 36,000  Level FlightAware
08:07AM 60.8540 23.1850 299° West 435 501 36,000  Level FlightAware
08:08AM 60.8950 23.0330 299° West 431 496 36,000  Level FlightAware
08:08AM 60.9350 22.8810 298° West 430 495 36,000  Level FlightAware
08:09AM 60.9690 22.7550 299° West 430 495 36,000  Level FlightAware
08:10AM 61.0030 22.6260 299° West 430 495 36,000  Level FlightAware
08:10AM 61.0410 22.4820 299° West 430 495 36,000  Level FlightAware
08:11AM 61.0860 22.3100 298° West 431 496 36,000  Level FlightAware
08:12AM 61.1290 22.1430 298° West 432 497 36,000  Level FlightAware
08:13AM 61.1750 21.9620 298° West 428 493 36,000  Level FlightAware
08:13AM 61.2170 21.7980 298° West 428 493 36,000  Level FlightAware
08:14AM 61.2520 21.6600 298° West 426 490 36,000  Level FlightAware
08:15AM 61.2930 21.4960 298° West 429 494 36,000  Level FlightAware
08:16AM 61.3340 21.3350 298° West 430 495 36,000  Level FlightAware
08:16AM 61.3740 21.1730 297° West 431 496 36,000  Level FlightAware
08:17AM 61.4100 21.0260 297° West 430 495 36,000  Level FlightAware
08:18AM 61.4460 20.8810 297° West 428 493 36,000  Level FlightAware
08:18AM 61.4770 20.7520 297° West 428 493 36,000  Level FlightAware
08:19AM 61.5180 20.5790 296° West 425 489 36,000  Level FlightAware
08:20AM 61.5550 20.4270 297° West 426 490 36,000  Level FlightAware
08:20AM 61.5880 20.2880 297° West 426 490 36,000  Level FlightAware
08:21AM 61.6290 20.1140 296° West 427 491 36,000  Level FlightAware
08:22AM 61.6640 19.9630 296° West 428 493 36,000  Level FlightAware
08:22AM 61.6970 19.8210 296° West 429 494 36,000  Level FlightAware
08:23AM 61.7290 19.6870 297° West 429 494 36,000  Level FlightAware
08:24AM 61.7620 19.5410 296° West 429 494 36,000  Level FlightAware
08:24AM 61.8040 19.3720 298° West 430 495 36,000  Level FlightAware
08:25AM 61.8700 19.2280 314° West 430 495 36,000  Level FlightAware
08:26AM 61.9260 19.1090 315° West 431 496 36,000  Level FlightAware
08:27AM 61.9920 18.9710 316° Northwest 432 497 36,000  Level FlightAware
08:27AM 62.0500 18.8480 315° West 432 497 36,000  Level FlightAware
08:28AM 62.1110 18.7180 315° West 434 499 36,000  Level FlightAware
08:29AM 62.1580 18.6150 314° West 436 502 36,000  Level FlightAware
08:29AM 62.2340 18.4520 315° West 434 499 36,000  Level FlightAware
08:30AM 62.2880 18.3350 315° West 435 501 36,000  Level FlightAware
08:31AM 62.3480 18.2030 314° West 434 499 36,000  Level FlightAware
08:32AM 62.4100 18.0670 315° West 434 499 36,000  Level FlightAware
08:32AM 62.4670 17.9410 314° West 434 499 36,000  Level FlightAware
08:33AM 62.5280 17.8050 314° West 432 497 36,000  Level FlightAware
08:34AM 62.5830 17.6820 314° West 431 496 36,000  Level FlightAware
08:34AM 62.6440 17.5450 314° West 432 497 36,000  Level FlightAware
08:35AM 62.7000 17.4200 314° West 434 499 36,000  Level FlightAware
08:36AM 62.7620 17.2790 314° West 433 498 36,000  Level FlightAware
08:36AM 62.8160 17.1540 313° West 432 497 36,000  Level FlightAware
08:37AM 62.8710 17.0280 314° West 432 497 36,000  Level FlightAware
08:38AM 62.9270 16.8980 313° West 432 497 36,000  Level FlightAware
08:38AM 62.9860 16.7600 313° West 432 497 36,000  Level FlightAware
08:39AM 63.0460 16.6200 313° West 434 499 36,000  Level FlightAware
08:40AM 63.1060 16.4770 313° West 434 499 36,000  Level FlightAware
08:41AM 63.1600 16.3490 313° West 434 499 36,000  Level FlightAware
08:41AM 63.2210 16.2040 313° West 436 502 36,000  Level FlightAware
08:42AM 63.2750 16.0730 313° West 436 502 36,000  Level FlightAware
08:43AM 63.3310 15.9370 313° West 432 497 36,000  Level FlightAware
08:43AM 63.3850 15.8060 313° West 431 496 36,000  Level FlightAware
08:44AM 63.4370 15.6790 313° West 432 497 36,000  Level FlightAware
08:45AM 63.4920 15.5430 312° West 431 496 36,000  Level FlightAware
08:45AM 63.5510 15.3970 312° West 429 494 36,000  Level FlightAware
08:46AM 63.5930 15.2910 312° West 431 496 36,000  Level FlightAware
08:47AM 63.6520 15.1430 312° West 431 496 36,000  Level FlightAware
08:47AM 63.7020 15.0170 312° West 429 494 36,000  Level FlightAware
08:48AM 63.7510 14.8930 312° West 428 493 36,000  Level FlightAware
08:49AM 63.8040 14.7570 311° West 430 495 36,000  Level FlightAware
08:49AM 63.8510 14.6360 311° West 432 497 36,000  Level FlightAware
08:50AM 63.9090 14.4860 311° West 433 498 36,000  Level FlightAware
08:51AM 63.9610 14.3500 311° West 430 495 36,000  Level FlightAware
08:51AM 64.0140 14.2110 311° West 431 496 36,000  Level FlightAware
08:52AM 64.0720 14.0600 311° West 429 494 36,000  Level FlightAware
08:53AM 64.1280 13.9110 311° West 430 495 36,000  Level FlightAware
08:53AM 64.1820 13.7660 311° West 429 494 36,000  Level FlightAware
08:54AM 64.2330 13.6280 310° West 427 491 36,000  Level FlightAware
08:55AM 64.2840 13.4910 311° West 424 488 36,000  Level FlightAware
08:55AM 64.3350 13.3520 310° West 422 486 36,000  Level FlightAware
08:56AM 64.3850 13.2140 310° West 422 486 36,000  Level FlightAware
08:57AM 64.4370 13.0700 310° West 423 487 36,000  Level FlightAware
08:58AM 64.4880 12.9280 310° West 423 487 36,000  Level FlightAware
08:58AM 64.5440 12.7720 310° West 423 487 36,000  Level FlightAware
08:59AM 64.5910 12.6400 310° West 424 488 36,000  Level FlightAware
09:00AM 64.6460 12.4840 310° West 426 490 36,000  Level FlightAware
09:00AM 64.6910 12.3570 310° West 424 488 36,000  Level FlightAware
09:01AM 64.7400 12.2170 309° West 423 487 36,000  Level FlightAware
09:02AM 64.7960 12.0550 309° West 425 489 36,000  Level FlightAware
09:02AM 64.8450 11.9130 309° West 426 490 36,000  Level FlightAware
09:03AM 64.8990 11.7540 309° West 426 490 36,000  Level FlightAware
09:04AM 64.9510 11.5990 308° West 426 490 36,000  Level FlightAware
09:04AM 64.9970 11.4640 309° West 427 491 36,000  Level FlightAware
09:05AM 65.0510 11.3030 309° West 427 491 36,000  Level FlightAware
09:06AM 65.1000 11.1550 308° West 427 491 36,000  Level FlightAware
09:07AM 65.1560 10.9870 308° West 427 491 36,000  Level FlightAware
09:07AM 65.2040 10.8380 308° West 428 493 36,000  Level FlightAware
09:08AM 65.2530 10.6890 308° West 429 494 36,000  Level FlightAware
09:09AM 65.3090 10.5170 308° West 430 495 36,000  Level FlightAware
09:09AM 65.3570 10.3660 307° West 430 495 36,000  Level FlightAware
09:10AM 65.4100 10.1980 307° West 431 496 36,000  Level FlightAware
09:11AM 65.4930 9.9370 308° West 430 495 36,000  Level FlightAware
09:12AM 65.5250 9.8340 307° West 430 495 36,000  Level FlightAware
09:13AM 65.5920 9.6180 307° West 431 496 36,000  Level FlightAware
09:13AM 65.6410 9.4580 307° West 431 496 36,000  Level FlightAware
09:14AM 65.6930 9.2880 307° West 429 494 36,000  Level FlightAware
09:15AM 65.7390 9.1360 306° West 429 494 36,000  Level FlightAware
09:15AM 65.7870 8.9780 307° West 429 494 36,000  Level FlightAware
09:16AM 65.8230 8.8550 306° West 429 494 36,000  Level FlightAware
09:17AM 65.8590 8.7350 306° West 429 494 36,000  Level FlightAware
09:17AM 65.9080 8.5710 306° West 429 494 36,000  Level FlightAware
09:18AM 65.9430 8.4510 306° West 429 494 36,000  Level FlightAware
09:19AM 65.9790 8.3300 306° West 429 494 36,000  Level FlightAware
09:19AM 66.0270 8.1690 306° West 429 494 36,000  Level FlightAware
09:20AM 66.0620 8.0480 306° West 429 494 36,000  Level FlightAware
09:21AM 66.1100 7.8860 306° West 429 494 36,000  Level FlightAware
09:21AM 66.1460 7.7650 306° West 429 494 36,000  Level FlightAware
09:22AM 66.1930 7.6030 306° West 429 494 36,000  Level FlightAware
09:23AM 66.2290 7.4810 306° West 429 494 36,000  Level FlightAware
09:23AM 66.2650 7.3560 306° West 429 494 36,000  Level FlightAware
09:24AM 66.3120 7.1960 306° West 429 494 36,000  Level FlightAware
09:25AM 66.3480 7.0740 306° West 429 494 36,000  Level FlightAware
09:27AM 66.3781 6.5994 279° West  Level Estimated
09:28AM 66.3951 6.3197 279° West  Level Estimated
09:29AM 66.4116 6.0396 279° West  Level Estimated
09:30AM 66.4276 5.7592 278° West  Level Estimated
09:31AM 66.4431 5.4784 278° West  Level Estimated
09:32AM 66.4581 5.1973 278° West  Level Estimated
09:33AM 66.4726 4.9158 277° West  Level Estimated
09:34AM 66.4866 4.6340 277° West  Level Estimated
09:35AM 66.5001 4.3519 277° West  Level Estimated
09:36AM 66.5131 4.0695 277° West  Level Estimated
09:37AM 66.5255 3.7868 276° West  Level Estimated
09:38AM 66.5375 3.5038 276° West  Level Estimated
09:39AM 66.5489 3.2206 276° West  Level Estimated
09:40AM 66.5599 2.9371 276° West  Level Estimated
09:41AM 66.5703 2.6534 275° West  Level Estimated
09:42AM 66.5802 2.3694 275° West  Level Estimated
09:43AM 66.5896 2.0853 275° West  Level Estimated
09:44AM 66.5985 1.8009 275° West  Level Estimated
09:45AM 66.6068 1.5163 274° West  Level Estimated
09:46AM 66.6147 1.2315 274° West  Level Estimated
09:47AM 66.6220 0.9466 274° West  Level Estimated
09:48AM 66.6288 0.6614 274° West  Level Estimated
09:49AM 66.6351 0.3762 273° West  Level Estimated
09:50AM 66.6409 0.0908 273° West  Level Estimated
09:51AM 66.6462 -0.1948 273° West  Level Estimated
09:52AM 66.6509 -0.4804 273° West  Level Estimated
09:53AM 66.6552 -0.7662 272° West  Level Estimated
09:54AM 66.6589 -1.0520 272° West  Level Estimated
09:55AM 66.6620 -1.3379 272° West  Level Estimated
09:56AM 66.6647 -1.6239 271° West  Level Estimated
09:57AM 66.6669 -1.9100 271° West  Level Estimated
09:58AM 66.6685 -2.1960 271° West  Level Estimated
09:59AM 66.6696 -2.4822 271° West  Level Estimated
10:00AM 66.6702 -2.7683 270° West  Level Estimated
10:01AM 66.6703 -3.0545 270° West  Level Estimated
10:02AM 66.6698 -3.3406 270° West  Level Estimated
10:03AM 66.6689 -3.6267 270° West  Level Estimated
10:04AM 66.6674 -3.9128 269° West  Level Estimated
10:05AM 66.6654 -4.1989 269° West  Level Estimated
10:06AM 66.6628 -4.4849 269° West  Level Estimated
10:07AM 66.6598 -4.7709 269° West  Level Estimated
10:08AM 66.6562 -5.0567 268° West  Level Estimated
10:09AM 66.6522 -5.3425 268° West  Level Estimated
10:10AM 66.6476 -5.6282 268° West  Level Estimated
10:11AM 66.6424 -5.9138 268° West  Level Estimated
10:12AM 66.6368 -6.1992 267° West  Level Estimated
10:13AM 66.6307 -6.4845 267° West  Level Estimated
10:14AM 66.6240 -6.7697 267° West  Level Estimated
10:15AM 66.6168 -7.0547 266° West  Level Estimated
10:16AM 66.6091 -7.3395 266° West  Level Estimated
10:17AM 66.6009 -7.6241 266° West  Level Estimated
10:18AM 66.5921 -7.9086 266° West  Level Estimated
10:19AM 66.5829 -8.1928 265° West  Level Estimated
10:20AM 66.5731 -8.4768 265° West  Level Estimated
10:21AM 66.5629 -8.7606 265° West  Level Estimated
10:22AM 66.5521 -9.0442 265° West  Level Estimated
10:23AM 66.5408 -9.3275 264° West  Level Estimated
10:24AM 66.5290 -9.6105 264° West  Level Estimated
10:25AM 66.5166 -9.8933 264° West  Level Estimated
10:26AM 66.5038 -10.1758 264° West  Level Estimated
10:27AM 66.4905 -10.4580 263° West  Level Estimated
10:28AM 66.4766 -10.7399 263° West  Level Estimated
10:29AM 66.4623 -11.0214 263° West  Level Estimated
10:30AM 66.4474 -11.3027 263° West  Level Estimated
10:31AM 66.4321 -11.5835 262° West  Level Estimated
10:32AM 66.4162 -11.8641 262° West  Level Estimated
10:33AM 66.3998 -12.1443 262° West  Level Estimated
10:34AM 66.3829 -12.4241 262° West  Level Estimated
10:35AM 66.3656 -12.7035 261° West  Level Estimated
10:36AM 66.3477 -12.9825 261° West  Level Estimated
10:37AM 66.3293 -13.2612 261° West  Level Estimated
10:38AM 66.3105 -13.5394 261° West  Level Estimated
10:39AM 66.2911 -13.8172 260° West  Level Estimated
10:40AM 66.2712 -14.0945 260° West  Level Estimated
10:41AM 66.2509 -14.3714 260° West  Level Estimated
10:42AM 66.2300 -14.6479 260° West  Level Estimated
10:43AM 66.2087 -14.9239 259° West  Level Estimated
10:44AM 66.1869 -15.1994 259° West  Level Estimated
10:45AM 66.1645 -15.4745 259° West  Level Estimated
10:46AM 66.1417 -15.7490 259° West  Level Estimated
10:47AM 66.1184 -16.0231 258° West  Level Estimated
10:48AM 66.0947 -16.2966 258° West  Level Estimated
10:49AM 66.0704 -16.5697 258° West  Level Estimated
10:50AM 66.0456 -16.8422 258° West  Level Estimated
10:51AM 66.0204 -17.1142 257° West  Level Estimated
10:52AM 65.9947 -17.3856 257° West  Level Estimated
10:53AM 65.9686 -17.6565 257° West  Level Estimated
10:54AM 65.9419 -17.9268 257° West  Level Estimated
10:55AM 65.9148 -18.1966 256° West  Level Estimated
10:56AM 65.8872 -18.4657 256° West  Level Estimated
10:57AM 65.8591 -18.7344 256° West  Level Estimated
10:58AM 65.8306 -19.0023 256° West  Level Estimated
10:59AM 65.8016 -19.2698 255° West  Level Estimated
11:00AM 65.7721 -19.5366 255° West  Level Estimated
11:01AM 65.7422 -19.8027 255° West  Level Estimated
11:02AM 65.7118 -20.0683 255° West  Level Estimated
11:03AM 65.6809 -20.3333 254° West  Level Estimated
11:04AM 65.6496 -20.5975 254° West  Level Estimated
11:05AM 65.6179 -20.8612 254° West  Level Estimated
11:06AM 65.5856 -21.1242 254° West  Level Estimated
11:07AM 65.5529 -21.3866 253° West  Level Estimated
11:08AM 65.5198 -21.6483 253° West  Level Estimated
11:09AM 65.4862 -21.9093 253° West  Level Estimated
11:10AM 65.4522 -22.1696 253° West  Level Estimated
11:11AM 65.4177 -22.4293 252° West  Level Estimated
11:12AM 65.3828 -22.6883 252° West  Level Estimated
11:13AM 65.3475 -22.9466 252° West  Level Estimated
11:14AM 65.3117 -23.2042 252° West  Level Estimated
11:15AM 65.2754 -23.4611 251° West  Level Estimated
11:16AM 65.2387 -23.7172 251° West  Level Estimated
11:17AM 65.2016 -23.9727 251° West  Level Estimated
11:18AM 65.1641 -24.2274 251° West  Level Estimated
11:19AM 65.1261 -24.4815 251° West  Level Estimated
11:20AM 65.0877 -24.7348 250° West  Level Estimated
11:21AM 65.0489 -24.9873 250° West  Level Estimated
11:22AM 65.0096 -25.2391 250° West  Level Estimated
11:23AM 64.9700 -25.4902 250° West  Level Estimated
11:24AM 64.9299 -25.7405 249° West  Level Estimated
11:25AM 64.8894 -25.9901 249° West  Level Estimated
11:26AM 64.8484 -26.2389 249° West  Level Estimated
11:27AM 64.8071 -26.4870 249° West  Level Estimated
11:28AM 64.7653 -26.7343 248° West  Level Estimated
11:29AM 64.7232 -26.9808 248° West  Level Estimated
11:30AM 64.6806 -27.2266 248° West  Level Estimated
11:31AM 64.6376 -27.4716 248° West  Level Estimated
11:32AM 64.5942 -27.7158 248° West  Level Estimated
11:33AM 64.5504 -27.9592 247° West  Level Estimated
11:34AM 64.5062 -28.2019 247° West  Level Estimated
11:35AM 64.4616 -28.4437 247° West  Level Estimated
11:36AM 64.4167 -28.6848 247° West  Level Estimated
11:37AM 64.3713 -28.9250 247° West  Level Estimated
11:38AM 64.3255 -29.1645 246° West  Level Estimated
11:39AM 64.2794 -29.4032 246° West  Level Estimated
11:40AM 64.2328 -29.6411 246° West  Level Estimated
11:41AM 64.1859 -29.8782 246° West  Level Estimated
11:42AM 64.1386 -30.1144 245° Southwest  Level Estimated
11:43AM 64.0909 -30.3499 245° Southwest  Level Estimated
11:44AM 64.0428 -30.5845 245° Southwest  Level Estimated
11:45AM 63.9944 -30.8184 245° Southwest  Level Estimated
11:46AM 63.9455 -31.0514 245° Southwest  Level Estimated
11:47AM 63.8964 -31.2836 244° Southwest  Level Estimated
11:48AM 63.8468 -31.5150 244° Southwest  Level Estimated
11:49AM 63.7968 -31.7456 244° Southwest  Level Estimated
11:50AM 63.7465 -31.9754 244° Southwest  Level Estimated
11:51AM 63.6959 -32.2043 244° Southwest  Level Estimated
11:52AM 63.6448 -32.4325 243° Southwest  Level Estimated
11:53AM 63.5934 -32.6598 243° Southwest  Level Estimated
11:54AM 63.5417 -32.8863 243° Southwest  Level Estimated
11:55AM 63.4896 -33.1119 243° Southwest  Level Estimated
11:56AM 63.4371 -33.3368 243° Southwest  Level Estimated
11:57AM 63.3843 -33.5608 242° Southwest  Level Estimated
11:58AM 63.3312 -33.7840 242° Southwest  Level Estimated
11:59AM 63.2777 -34.0063 242° Southwest  Level Estimated
12:00PM 63.2238 -34.2279 242° Southwest  Level Estimated
12:01PM 63.1696 -34.4486 242° Southwest  Level Estimated
12:02PM 63.1151 -34.6684 241° Southwest  Level Estimated
12:03PM 63.0602 -34.8875 241° Southwest  Level Estimated
12:04PM 63.0050 -35.1057 241° Southwest  Level Estimated
12:05PM 62.9495 -35.3231 241° Southwest  Level Estimated
12:06PM 62.8936 -35.5397 241° Southwest  Level Estimated
12:07PM 62.8374 -35.7555 240° Southwest  Level Estimated
12:08PM 62.7808 -35.9704 240° Southwest  Level Estimated
12:09PM 62.7240 -36.1845 240° Southwest  Level Estimated
12:10PM 62.6668 -36.3977 240° Southwest  Level Estimated
12:11PM 62.6093 -36.6102 240° Southwest  Level Estimated
12:12PM 62.5514 -36.8218 239° Southwest  Level Estimated
12:13PM 62.4933 -37.0326 239° Southwest  Level Estimated
12:14PM 62.4348 -37.2426 239° Southwest  Level Estimated
12:15PM 62.3760 -37.4518 239° Southwest  Level Estimated
12:16PM 62.3170 -37.6601 239° Southwest  Level Estimated
12:17PM 62.2576 -37.8676 238° Southwest  Level Estimated
12:18PM 62.1978 -38.0743 238° Southwest  Level Estimated
12:19PM 62.1378 -38.2802 238° Southwest  Level Estimated
12:20PM 62.0775 -38.4852 238° Southwest  Level Estimated
12:21PM 62.0169 -38.6895 238° Southwest  Level Estimated
12:22PM 61.9560 -38.8929 238° Southwest  Level Estimated
12:23PM 61.8947 -39.0956 237° Southwest  Level Estimated
12:24PM 61.8332 -39.2974 237° Southwest  Level Estimated
12:25PM 61.7714 -39.4984 237° Southwest  Level Estimated
12:26PM 61.7093 -39.6986 237° Southwest  Level Estimated
12:27PM 61.6469 -39.8979 237° Southwest  Level Estimated
12:28PM 61.5842 -40.0965 237° Southwest  Level Estimated
12:29PM 61.5212 -40.2943 236° Southwest  Level Estimated
12:30PM 61.4580 -40.4913 236° Southwest  Level Estimated
12:31PM 61.3944 -40.6875 236° Southwest  Level Estimated
12:32PM 61.3306 -40.8829 236° Southwest  Level Estimated
12:32PM 62.2510 -49.3160 236° Southwest 478 550 38,000  Level FlightAware
12:33PM 61.2665 -41.0774 236° Southwest  Level Estimated
12:33PM 62.1960 -49.4670 232° Southwest 478 550 38,000  Level FlightAware
12:34PM 62.1340 -49.6370 232° Southwest 478 550 38,000  Level FlightAware
12:35PM 62.0590 -49.8340 231° Southwest 478 550 38,000  Level FlightAware
12:36PM 61.9670 -50.0970 233° Southwest 478 550 38,000  Level FlightAware
12:37PM 61.9130 -50.2710 237° Southwest 478 550 38,000  Level FlightAware
12:37PM 61.8570 -50.4410 235° Southwest 480 552 38,000  Level FlightAware
12:38PM 61.8090 -50.5880 235° Southwest 479 551 38,000  Level FlightAware
12:39PM 61.7460 -50.7800 235° Southwest 479 551 38,000  Level FlightAware
12:40PM 61.7070 -50.8970 235° Southwest 479 551 38,000  Level FlightAware
12:40PM 61.6680 -51.0140 235° Southwest 479 551 38,000  Level FlightAware
12:41PM 61.6160 -51.1700 235° Southwest 479 551 38,000  Level FlightAware
12:42PM 61.5390 -51.4040 235° Southwest 479 551 38,000  Level FlightAware
12:43PM 61.4990 -51.5230 235° Southwest 479 551 38,000  Level FlightAware
12:44PM 61.4490 -51.6720 235° Southwest 479 551 38,000  Level FlightAware
12:44PM 61.4090 -51.7910 235° Southwest 479 551 38,000  Level FlightAware
12:45PM 61.2840 -52.1330 233° Southwest 487 560 38,000  Level FlightAware
12:46PM 61.2270 -52.2920 233° Southwest 487 560 38,000  Level FlightAware
12:46PM 61.1850 -52.4060 233° Southwest 487 560 38,000  Level FlightAware
12:47PM 61.1290 -52.5620 233° Southwest 487 560 38,000  Level FlightAware
12:48PM 61.0850 -52.6820 233° Southwest 487 560 38,000  Level FlightAware
12:48PM 61.0410 -52.8020 233° Southwest 487 560 38,000  Level FlightAware
12:49PM 60.9730 -52.9880 233° Southwest 487 560 38,000  Level FlightAware
12:50PM 60.9300 -53.1050 233° Southwest 487 560 38,000  Level FlightAware
12:51PM 60.8750 -53.2560 233° Southwest 487 560 38,000  Level FlightAware
12:51PM 60.8200 -53.4060 233° Southwest 487 560 38,000  Level FlightAware
12:52PM 60.7780 -53.5190 233° Southwest 487 560 38,000  Level FlightAware
12:53PM 60.7080 -53.7100 233° Southwest 487 560 38,000  Level FlightAware
12:54PM 60.6690 -53.8160 233° Southwest 487 560 38,000  Level FlightAware
12:54PM 60.6120 -53.9690 233° Southwest 487 560 38,000  Level FlightAware
12:57PM 60.4378 -54.2697 220° Southwest  Level Estimated
12:58PM 60.3512 -54.4176 220° Southwest  Level Estimated
12:59PM 60.2645 -54.5648 220° Southwest  Level Estimated
01:00PM 60.1775 -54.7111 220° Southwest  Level Estimated
01:01PM 60.1042 -54.9080 233° Southwest  Level FlightAware Approximate
01:02PM 60.0307 -55.1040 233° Southwest  Level FlightAware Approximate
01:02PM 59.9167 -55.7000 232° Southwest 490 564 38,000  Level Gander Center
01:03PM 59.9568 -55.2992 233° Southwest  Level FlightAware Approximate
01:03PM 59.8333 -55.8833 228° Southwest 490 564 38,000  Level Gander Center
01:04PM 59.8827 -55.4934 233° Southwest  Level FlightAware Approximate
01:04PM 59.7167 -56.1000 223° Southwest 490 564 55,500  Level Gander Center
01:05PM 59.8083 -55.6868 233° Southwest  Level FlightAware Approximate
01:05PM 59.6667 -56.3000 244° Southwest 490 564 38,000  Level Gander Center
01:06PM 59.7336 -55.8794 232° Southwest  Level FlightAware Approximate
01:06PM 59.5667 -56.5167 228° Southwest 490 564 38,000  Level Gander Center
01:07PM 59.6586 -56.0710 232° Southwest  Level FlightAware Approximate
01:07PM 59.4833 -56.7333 233° Southwest 490 564 38,000  Level Gander Center
01:08PM 59.4000 -56.9333 231° Southwest 490 564 38,000  Level Gander Center
01:09PM 59.3000 -57.1333 226° Southwest 480 552 38,000  Level Gander Center
01:10PM 59.2167 -57.3167 228° Southwest 490 564 38,000  Level Gander Center
01:11PM 59.1333 -57.5167 231° Southwest 490 564 38,000  Level Gander Center
01:12PM 59.0333 -57.7167 226° Southwest 490 564 38,000  Level Gander Center
01:13PM 58.9667 -57.9167 237° Southwest 490 564 38,000  Level Gander Center
01:14PM 58.8667 -58.1167 226° Southwest 490 564 38,000  Level Gander Center
01:15PM 58.7667 -58.3333 228° Southwest 490 564 38,000  Level Gander Center
01:16PM 58.6833 -58.5333 231° Southwest 490 564 38,000  Level Gander Center
01:17PM 58.6000 -58.7167 229° Southwest 490 564 38,000  Level Gander Center
01:18PM 58.5000 -58.8833 221° Southwest 490 564 38,000  Level Gander Center
01:19PM 58.4167 -59.0833 232° Southwest 490 564 38,000  Level Gander Center
01:20PM 58.3167 -59.2833 226° Southwest 490 564 38,000  Level Gander Center
01:21PM 58.2333 -59.4833 232° Southwest 490 564 38,000  Level Gander Center
01:22PM 58.1500 -59.6667 229° Southwest 480 552 38,000  Level Gander Center
01:23PM 58.0500 -59.8667 227° Southwest 480 552 38,000  Level Gander Center
01:24PM 57.9333 -60.0000 211° Southwest 490 564 38,000  Level Gander Center
01:25PM 57.8333 -60.1500 219° Southwest 490 564 38,000  Level Gander Center
01:26PM 57.7167 -60.2833 211° Southwest 490 564 38,000  Level Gander Center
01:27PM 57.6000 -60.4500 217° Southwest 490 564 38,000  Level Gander Center
01:28PM 57.4833 -60.5667 208° Southwest 490 564 38,000  Level Gander Center
01:29PM 57.3667 -60.7000 212° Southwest 490 564 38,000  Level Gander Center
01:30PM 57.2500 -60.8500 215° Southwest 490 564 38,000  Level Gander Center
01:31PM 57.1333 -60.9667 208° Southwest 490 564 38,000  Level Gander Center
01:32PM 57.0167 -61.1333 218° Southwest 490 564 38,000  Level Gander Center
01:33PM 56.9000 -61.2500 209° Southwest 500 575 38,000  Level Gander Center
01:34PM 56.7833 -61.4000 215° Southwest 490 564 38,000  Level Gander Center
01:35PM 56.6667 -61.5333 212° Southwest 490 564 38,000  Level Gander Center
01:36PM 56.5500 -61.6833 215° Southwest 490 564 38,000  Level Gander Center
01:37PM 56.4333 -61.7667 202° Southwest 490 564 38,000  Level Gander Center
01:38PM 56.3000 -61.8833 206° Southwest 490 564 38,000  Level Gander Center
01:39PM 56.1833 -62.0000 209° Southwest 490 564 38,000  Level Gander Center
01:40PM 56.0667 -62.1167 209° Southwest 490 564 38,000  Level Gander Center
01:41PM 55.9500 -62.2333 209° Southwest 490 564 38,000  Level Gander Center
01:42PM 55.8167 -62.3500 206° Southwest 490 564 38,000  Level Gander Center
01:43PM 55.7000 -62.4333 202° Southwest 500 575 38,000  Level Gander Center
01:44PM 55.5833 -62.5500 209° Southwest 490 564 38,000  Level Gander Center
01:45PM 55.4500 -62.6667 206° Southwest 490 564 38,000  Level Gander Center
01:46PM 55.3333 -62.7833 210° Southwest 490 564 38,000  Level Gander Center
01:47PM 55.2000 -62.9000 207° Southwest 500 575 38,000  Level Gander Center
01:48PM 55.0833 -62.9833 202° Southwest 500 575 38,000  Level Gander Center
01:49PM 54.9500 -63.0833 203° Southwest 490 564 38,000  Level Gander Center
01:50PM 54.8333 -63.2000 210° Southwest 500 575 38,000  Level Gander Center
01:51PM 54.7000 -63.3000 203° Southwest 490 564 38,000  Level Gander Center
01:52PM 54.5833 -63.4167 210° Southwest 500 575 38,000  Level Gander Center
01:53PM 54.4667 -63.5000 203° Southwest 500 575 38,000  Level Gander Center
01:54PM 54.3500 -63.6000 207° Southwest 500 575 38,000  Level Gander Center
01:55PM 54.2167 -63.7167 207° Southwest 500 575 38,000  Level Gander Center
01:56PM 54.0833 -63.8167 204° Southwest 490 564 38,000  Level Gander Center
01:57PM 53.9667 -63.9333 210° Southwest 490 564 38,000  Level Gander Center
01:58PM 53.8333 -64.0333 204° Southwest 500 575 38,000  Level Gander Center
01:59PM 53.7167 -64.1333 207° Southwest 490 564 38,000  Level Gander Center
02:00PM 53.6000 -64.2167 203° Southwest 500 575 38,000  Level Gander Center
02:01PM 53.4667 -64.3500 211° Southwest 500 575 38,000  Level Gander Center
02:02PM 53.3500 -64.4500 207° Southwest 490 564 38,000  Level Gander Center
02:03PM 53.2333 -64.5500 207° Southwest 490 564 38,000  Level Gander Center
02:04PM 53.1167 -64.6500 207° Southwest 490 564 38,000  Level Gander Center
02:05PM 53.0000 -64.7500 207° Southwest 490 564 38,000  Level Gander Center
02:06PM 52.8667 -64.8500 204° Southwest 490 564 38,000  Level Gander Center
02:07PM 52.7500 -64.9833 215° Southwest 490 564 38,000  Level Gander Center
02:08PM 52.6333 -65.0833 207° Southwest 480 552 38,000  Level Gander Center
02:09PM 52.5167 -65.1833 208° Southwest 480 552 38,000  Level Gander Center
02:10PM 52.4000 -65.2833 208° Southwest 480 552 38,000  Level Gander Center
02:11PM 52.2667 -65.3833 205° Southwest 480 552 38,000  Level Gander Center
02:12PM 52.1500 -65.4833 208° Southwest 490 564 38,000  Level Gander Center
02:13PM 52.0333 -65.5833 208° Southwest 490 564 38,000  Level Gander Center
02:14PM 51.9167 -65.6833 208° Southwest 490 564 38,000  Level Gander Center
02:14PM 51.8333 -65.7167 194° South 500 575 38,000  Level Moncton Center
02:15PM 51.7000 -65.7667 193° South 510 587 38,000  Level Moncton Center
02:16PM 51.5333 -65.8167 191° South 510 587 38,000  Level Moncton Center
02:17PM 51.4000 -65.8667 193° South 510 587 38,000  Level Moncton Center
02:18PM 51.2500 -65.9167 192° South 510 587 38,000  Level Moncton Center
02:19PM 51.1167 -65.9667 193° South 510 587 38,000  Level Moncton Center
02:20PM 51.0000 -66.0167 195° South 510 587 38,000  Level Moncton Center
02:21PM 50.8500 -66.0667 192° South 510 587 38,000  Level Moncton Center
02:22PM 50.7167 -66.1167 193° South 500 575 38,000  Level Moncton Center
02:23PM 50.5833 -66.1667 193° South 500 575 38,000  Level Moncton Center
02:24PM 50.4500 -66.2167 193° South 500 575 38,000  Level Moncton Center
02:25PM 50.3000 -66.2500 188° South 500 575 38,000  Level Moncton Center
02:26PM 50.1667 -66.3000 194° South 500 575 38,000  Level Moncton Center
02:27PM 50.0500 -66.3833 205° Southwest 490 564 38,000  Level Moncton Center
02:28PM 49.9167 -66.4500 198° South 490 564 38,000  Level Moncton Center
02:29PM 49.7833 -66.5167 198° South 480 552 38,000  Level Moncton Center
02:30PM 49.6500 -66.6000 202° Southwest 480 552 38,000  Level Moncton Center
02:31PM 49.5333 -66.6500 196° South 480 552 38,000  Level Moncton Center
02:32PM 49.4000 -66.7167 198° South 470 541 38,000  Level Moncton Center
02:33PM 49.2833 -66.7833 200° South 470 541 38,000  Level Moncton Center
02:34PM 49.1667 -66.8500 200° South 470 541 38,000  Level Moncton Center
02:35PM 49.0500 -66.9333 205° Southwest 470 541 38,000  Level Moncton Center
02:36PM 48.9333 -67.0000 201° Southwest 470 541 38,000  Level Moncton Center
02:37PM 48.7833 -67.0667 196° South 470 541 38,000  Level Moncton Center
02:44PM 48.0410 -67.4580 196° South 468 539 38,000  Level FlightAware
02:44PM 47.9610 -67.4990 199° South 469 540 38,000  Level FlightAware
02:45PM 47.9580 -67.5000 193° South 472 543 38,000  Level FlightAware
02:46PM 47.7650 -67.5990 199° South 473 544 38,000  Level FlightAware
02:46PM 47.6960 -67.6350 199° South 473 544 38,000  Level FlightAware
02:47PM 47.5880 -67.6890 199° South 474 545 38,000  Level FlightAware
02:48PM 47.4650 -67.7510 199° South 474 545 38,000  Level FlightAware
02:49PM 47.3690 -67.8000 199° South 474 545 38,000  Level FlightAware
02:50PM 47.2840 -67.8420 199° South 475 547 38,000  Level FlightAware
02:50PM 47.2010 -67.8840 199° South 477 549 38,000  Level FlightAware
02:51PM 47.1180 -67.9250 199° South 477 549 38,000  Level FlightAware
02:52PM 47.0340 -67.9670 199° South 476 548 38,000  Level FlightAware
02:52PM 46.9610 -68.0030 199° South 477 549 38,000  Level FlightAware
02:53PM 46.8680 -68.0490 199° South 477 549 38,000  Level FlightAware
02:54PM 46.7850 -68.0890 198° South 475 547 38,000  Level FlightAware
02:54PM 46.7340 -68.1140 199° South 478 550 38,000  Level FlightAware
02:55PM 46.6470 -68.1490 195° South 481 554 38,000  Level FlightAware
02:55PM 46.5570 -68.1840 195° South 480 552 38,000  Level FlightAware
02:57PM 46.4000 -68.2500 196° South 467 537 38,000  Level FlightAware
02:57PM 46.3360 -68.2760 196° South 475 547 38,000  Level FlightAware
02:58PM 46.2010 -68.3320 196° South 470 541 38,000  Level FlightAware
02:59PM 46.1110 -68.3690 196° South 471 542 38,000  Level FlightAware
03:00PM 46.0180 -68.4060 195° South 472 543 38,000  Level FlightAware
03:00PM 45.9310 -68.4420 196° South 471 542 38,000  Level FlightAware
03:01PM 45.8460 -68.4760 196° South 470 541 38,000  Level FlightAware
03:02PM 45.7610 -68.5100 196° South 471 542 38,000  Level FlightAware
03:02PM 45.6660 -68.5490 196° South 480 552 38,000  Level FlightAware
03:03PM 45.5780 -68.5840 196° South 471 542 38,000  Level FlightAware
03:04PM 45.4910 -68.6180 195° South 467 537 38,000  Level FlightAware
03:04PM 45.3980 -68.6550 196° South 466 536 38,000  Level FlightAware
03:05PM 45.3110 -68.6900 196° South 465 535 38,000  Level FlightAware
03:06PM 45.2280 -68.7230 196° South 465 535 38,000  Level FlightAware
03:07PM 45.1270 -68.7630 196° South 472 543 38,000  Level FlightAware
03:07PM 45.0450 -68.7950 195° South 470 541 38,000  Level FlightAware
03:08PM 44.9510 -68.8310 195° South 470 541 38,000  Level FlightAware
03:09PM 44.8680 -68.8650 196° South 468 539 38,000  Level FlightAware
03:09PM 44.7810 -68.9140 202° Southwest 461 531 38,000  Level FlightAware
03:10PM 44.7010 -68.9690 206° Southwest 462 532 38,000  Level FlightAware
03:11PM 44.5850 -69.0490 206° Southwest 464 534 38,000  Level FlightAware
03:12PM 44.4850 -69.1170 206° Southwest 468 539 38,000  Level FlightAware
03:13PM 44.4070 -69.1690 205° Southwest 469 540 38,000  Level FlightAware
03:13PM 44.3460 -69.2110 206° Southwest 469 540 38,000  Level FlightAware
03:14PM 44.2520 -69.2740 206° Southwest 469 540 38,000  Level FlightAware
03:15PM 44.1750 -69.3260 206° Southwest 468 539 38,000  Level FlightAware
03:15PM 44.0930 -69.3800 205° Southwest 468 539 38,000  Level FlightAware
03:16PM 44.0090 -69.4360 206° Southwest 468 539 38,000  Level FlightAware
03:17PM 43.9200 -69.4950 206° Southwest 472 543 38,000  Level FlightAware
03:17PM 43.8410 -69.5470 205° Southwest 473 544 38,000  Level FlightAware
03:18PM 43.7720 -69.5930 206° Southwest 471 542 38,000  Level FlightAware
03:19PM 43.6960 -69.6420 205° Southwest 469 540 38,000  Level FlightAware
03:19PM 43.6170 -69.6940 205° Southwest 468 539 38,000  Level FlightAware
03:20PM 43.5410 -69.7440 205° Southwest 468 539 38,000  Level FlightAware
03:21PM 43.4590 -69.7960 205° Southwest 470 541 38,000  Level FlightAware
03:21PM 43.3730 -69.8310 196° South 476 548 38,000  Level FlightAware
03:22PM 43.2840 -69.8520 190° South 477 549 38,000  Level FlightAware
03:23PM 43.1910 -69.8670 187° South 473 544 38,000  Level FlightAware
03:23PM 43.0950 -69.8830 187° South 472 543 38,000  Level FlightAware
03:24PM 43.0200 -69.8940 186° South 466 536 38,000  Level FlightAware
03:25PM 42.9150 -69.9090 186° South 475 547 38,000  Level FlightAware
03:26PM 42.8140 -69.9240 186° South 474 545 38,000  Level FlightAware
03:26PM 42.7280 -69.9360 186° South 473 544 38,000  Level FlightAware
03:27PM 42.6320 -69.9500 186° South 475 547 38,000  Level FlightAware
03:28PM 42.5580 -69.9610 186° South 475 547 38,000  Level FlightAware
03:28PM 42.4650 -69.9740 186° South 466 536 38,000  Level FlightAware
03:29PM 42.3670 -69.9880 186° South 471 542 38,000  Level FlightAware
03:30PM 42.2890 -69.9990 186° South 469 540 38,000  Level FlightAware
03:31PM 42.1870 -70.0170 187° South 458 527 38,000  Level FlightAware
03:31PM 42.1000 -70.0510 196° South 464 534 38,000  Level FlightAware
03:32PM 42.0240 -70.0970 204° Southwest 455 524 38,000  Level FlightAware
03:33PM 41.9300 -70.1810 214° Southwest 454 522 38,000  Level FlightAware
03:34PM 41.8550 -70.2770 224° Southwest 458 527 38,000  Level FlightAware
03:34PM 41.7990 -70.3580 227° Southwest 453 521 38,000  Level FlightAware
03:35PM 41.7430 -70.4400 228° Southwest 459 528 38,000  Level FlightAware
03:36PM 41.6800 -70.5310 227° Southwest 457 526 38,000  Level FlightAware
03:36PM 41.6310 -70.6020 227° Southwest 457 526 38,000  Level FlightAware
03:37PM 41.5580 -70.7070 227° Southwest 458 527 38,000  Level FlightAware
03:38PM 41.5010 -70.7890 227° Southwest 456 525 38,000  Level FlightAware
03:38PM 41.4490 -70.8650 228° Southwest 454 522 38,000  Level FlightAware
03:39PM 41.3830 -70.9580 227° Southwest 453 521 38,000  Level FlightAware
03:40PM 41.3270 -71.0380 227° Southwest 455 524 38,000  Level FlightAware
03:40PM 41.2700 -71.1350 232° Southwest 448 516 38,000  Level FlightAware
03:41PM 41.2240 -71.2480 242° Southwest 451 519 38,000  Level FlightAware
03:42PM 41.1970 -71.3440 250° West 446 513 38,000  Level FlightAware
03:43PM 41.1660 -71.4550 250° West 445 512 38,000  Level FlightAware
03:43PM 41.1410 -71.5440 250° West 444 511 38,000  Level FlightAware
03:44PM 41.1175 -71.6268 249° West 447 514 38,000  Level FlightAware ADS-B
03:44PM 41.0956 -71.7040 249° West 449 517 38,000  Level FlightAware ADS-B
03:45PM 41.0717 -71.7877 249° West 449 517 38,000  Level FlightAware ADS-B
03:45PM 41.0401 -71.8985 249° West 450 518 38,000  Level FlightAware ADS-B
03:46PM 41.0204 -71.9605 247° West 450 518 38,000  Level FlightAware ADS-B
03:46PM 40.9983 -72.0001 234° Southwest 451 519 38,000  Level FlightAware ADS-B
03:47PM 40.9426 -72.0693 223° Southwest 451 519 38,000  Level FlightAware ADS-B
03:47PM 40.8960 -72.1274 223° Southwest 451 519 38,000  Level FlightAware ADS-B
03:48PM 40.8489 -72.1855 223° Southwest 451 519 38,000  Level FlightAware ADS-B
03:48PM 40.8016 -72.2440 223° Southwest 451 519 38,000  Level FlightAware ADS-B
03:49PM 40.7428 -72.3170 223° Southwest 451 519 38,000  Level FlightAware ADS-B
03:50PM 40.6480 -72.4341 223° Southwest 451 519 38,000  Level FlightAware ADS-B
03:50PM 40.6060 -72.4860 223° Southwest 452 520 38,000  Level FlightAware
03:51PM 40.5380 -72.5700 223° Southwest 453 521 38,000  Level FlightAware
03:52PM 40.4961 -72.6208 223° Southwest 455 524 38,000  Level FlightAware ADS-B
03:52PM 40.4333 -72.6977 223° Southwest 457 526 38,000  Level FlightAware ADS-B
03:53PM 40.3849 -72.7568 223° Southwest 457 526 38,000  Level FlightAware ADS-B
03:53PM 40.3212 -72.8342 223° Southwest 457 526 38,000  Level FlightAware ADS-B
03:54PM 40.2790 -72.8860 223° Southwest 457 526 38,000  Level FlightAware
03:54PM 40.2608 -72.9076 222° Southwest 457 526 38,000  Level FlightAware ADS-B
03:55PM 40.2044 -72.9760 223° Southwest 457 526 38,000  Level FlightAware ADS-B
03:55PM 40.1571 -73.0331 223° Southwest 457 526 38,000  Level FlightAware ADS-B
03:56PM 40.0920 -73.1120 223° Southwest 456 525 38,000  Level FlightAware
03:57PM 40.0287 -73.1877 222° Southwest 457 526 38,000  Level FlightAware ADS-B
03:57PM 39.9780 -73.2485 223° Southwest 458 527 38,000  Level FlightAware ADS-B
03:58PM 39.9272 -73.3093 223° Southwest 458 527 38,000  Level FlightAware ADS-B
03:58PM 39.8774 -73.3688 223° Southwest 458 527 38,000  Level FlightAware ADS-B
03:59PM 39.8276 -73.4283 223° Southwest 457 526 38,000  Level FlightAware ADS-B
03:59PM 39.7757 -73.4899 222° Southwest 457 526 38,000  Level FlightAware ADS-B
04:00PM 39.7225 -73.5531 222° Southwest 457 526 38,000  Level FlightAware ADS-B
04:00PM 39.6739 -73.6107 222° Southwest 457 526 38,000  Level FlightAware ADS-B
04:01PM 39.6256 -73.6678 222° Southwest 458 527 38,000  Level FlightAware ADS-B
04:01PM 39.5768 -73.7253 222° Southwest 459 528 38,000  Level FlightAware ADS-B
04:02PM 39.5276 -73.7832 222° Southwest 459 528 38,000  Level FlightAware ADS-B
04:02PM 39.4819 -73.8369 222° Southwest 459 528 38,000  Level FlightAware ADS-B
04:03PM 39.4246 -73.9059 223° Southwest 460 529 38,000  Level FlightAware ADS-B
04:03PM 39.4015 -73.9412 230° Southwest 461 531 38,000  Level FlightAware ADS-B
04:04PM 39.3624 -74.0065 232° Southwest 460 529 38,000  Level FlightAware ADS-B
04:04PM 39.3237 -74.0721 233° Southwest 460 529 38,000  Level FlightAware ADS-B
04:05PM 39.2840 -74.1391 233° Southwest 461 531 38,000  Level FlightAware ADS-B
04:05PM 39.2430 -74.2086 233° Southwest 462 532 38,000  Level FlightAware ADS-B
04:06PM 39.2206 -74.2424 229° Southwest 462 532 38,000  Level FlightAware ADS-B
04:06PM 39.2076 -74.2589 225° Southwest 462 532 38,000  Level FlightAware ADS-B
04:06PM 39.1914 -74.2768 221° Southwest 461 531 38,000  Level FlightAware ADS-B
04:07PM 39.1389 -74.3330 220° Southwest 462 532 38,000  Level FlightAware ADS-B
04:07PM 39.0792 -74.3968 220° Southwest 463 533 38,000  Level FlightAware ADS-B
04:08PM 39.0255 -74.4540 220° Southwest 462 532 38,000  Level FlightAware ADS-B
04:08PM 38.9742 -74.5084 220° Southwest 462 532 38,000  Level FlightAware ADS-B
04:09PM 38.9059 -74.5807 219° Southwest 463 533 38,000  Level FlightAware ADS-B
04:09PM 38.8547 -74.6348 219° Southwest 465 535 38,000  Level FlightAware ADS-B
04:10PM 38.8028 -74.6896 219° Southwest 463 533 38,000  Level FlightAware ADS-B
04:11PM 38.7342 -74.7617 219° Southwest 462 532 38,000  Level FlightAware ADS-B
04:11PM 38.6823 -74.8160 219° Southwest 460 529 38,000  Level FlightAware ADS-B
04:12PM 38.6300 -74.8706 219° Southwest 459 528 38,000  Level FlightAware ADS-B
04:12PM 38.5656 -74.9379 219° Southwest 459 528 38,000  Level FlightAware ADS-B
04:13PM 38.5150 -74.9906 219° Southwest 458 527 38,000  Level FlightAware ADS-B
04:14PM 38.4300 -75.0790 219° Southwest 457 526 38,000  Level FlightAware
04:15PM 38.3490 -75.1630 219° Southwest 458 527 38,000  Level FlightAware ADS-B
04:15PM 38.2990 -75.2147 219° Southwest 458 527 38,000  Level FlightAware ADS-B
04:16PM 38.2492 -75.2661 219° Southwest 459 528 38,000  Level FlightAware ADS-B
04:16PM 38.1650 -75.3530 219° Southwest 459 528 38,000  Level FlightAware
04:17PM 38.0969 -75.4226 219° Southwest 461 531 38,000  Level FlightAware ADS-B
04:17PM 38.0745 -75.4453 219° Southwest 461 531 38,000  Level FlightAware ADS-B
04:18PM 38.0269 -75.4853 214° Southwest 459 528 38,000  Level FlightAware ADS-B
04:18PM 37.9776 -75.5201 209° Southwest 459 528 38,000  Level FlightAware ADS-B
04:19PM 37.8770 -75.5880 208° Southwest 459 528 38,000  Level FlightAware
04:20PM 37.7780 -75.6560 209° Southwest 461 531 38,000  Level FlightAware
04:20PM 37.7386 -75.6825 208° Southwest 463 533 38,000  Level FlightAware ADS-B
04:21PM 37.6788 -75.7232 208° Southwest 464 534 38,000  Level FlightAware ADS-B
04:21PM 37.6220 -75.7618 208° Southwest 464 534 38,000  Level FlightAware ADS-B
04:22PM 37.5623 -75.8022 208° Southwest 464 534 38,000  Level FlightAware ADS-B
04:23PM 37.4920 -75.8500 208° Southwest 458 527 38,000  Level FlightAware
04:23PM 37.4190 -75.8990 208° Southwest 458 527 38,000  Level FlightAware
04:24PM 37.3060 -75.9750 208° Southwest 457 526 38,000  Level FlightAware
04:25PM 37.1970 -76.0600 212° Southwest 472 543 38,000  Level FlightAware
04:26PM 37.1230 -76.1490 224° Southwest 473 544 38,000  Level FlightAware
04:26PM 37.0984 -76.1794 225° Southwest 475 547 38,000  Level FlightAware ADS-B
04:27PM 37.0411 -76.2487 224° Southwest 476 548 38,000  Level FlightAware ADS-B
04:27PM 36.9802 -76.3227 224° Southwest 476 548 38,000  Level FlightAware ADS-B
04:28PM 36.9206 -76.3955 224° Southwest 474 545 38,000  Level FlightAware ADS-B
04:29PM 36.8550 -76.4750 224° Southwest 475 547 38,000  Level FlightAware
04:29PM 36.8238 -76.5133 225° Southwest 474 545 38,000  Level FlightAware ADS-B
04:30PM 36.7758 -76.5717 224° Southwest 474 545 38,000  Level FlightAware ADS-B
04:31PM 36.6790 -76.7180 231° Southwest 480 552 38,000  Level FlightAware
04:31PM 36.6230 -76.7950 228° Southwest 474 545 38,000  Level FlightAware
04:32PM 36.5660 -76.8470 216° Southwest 474 545 38,000  Level FlightAware
04:32PM 36.5120 -76.8840 209° Southwest 38,000  Level FlightAware
04:33PM 36.4850 -76.9040 211° Southwest 467 537 38,000  Level FlightAware
04:34PM 36.3780 -76.9840 211° Southwest 468 539 38,000  Level FlightAware
04:34PM 36.2830 -77.0540 211° Southwest 469 540 38,000  Level FlightAware
04:35PM 36.2040 -77.1130 211° Southwest 470 541 38,000  Level FlightAware
04:36PM 36.1010 -77.1900 211° Southwest 469 540 38,000  Level FlightAware
04:37PM 36.0440 -77.2320 211° Southwest 469 540 38,000  Level FlightAware
04:37PM 35.9360 -77.3030 208° Southwest 462 532 38,000  Level FlightAware
04:38PM 35.8440 -77.3350 196° South 468 539 38,000  Level FlightAware
04:39PM 35.7650 -77.3630 196° South 469 540 38,000  Level FlightAware
04:39PM 35.6820 -77.3940 197° South 470 541 38,000  Level FlightAware
04:40PM 35.6100 -77.4200 196° South 470 541 38,000  Level FlightAware
04:41PM 35.5440 -77.4430 196° South 470 541 38,000  Level FlightAware
04:42PM 35.4590 -77.4730 196° South 470 541 38,000  Level FlightAware
04:42PM 35.3950 -77.4950 196° South 470 541 38,000  Level FlightAware
04:43PM 35.3100 -77.5250 196° South 470 541 38,000  Level FlightAware
04:44PM 35.2460 -77.5480 196° South 470 541 38,000  Level FlightAware
04:44PM 35.1820 -77.5700 196° South 470 541 38,000  Level FlightAware
04:45PM 35.0960 -77.6000 196° South 470 541 38,000  Level FlightAware
04:46PM 35.0320 -77.6220 196° South 470 541 38,000  Level FlightAware
04:46PM 34.9490 -77.6520 197° South 470 541 38,000  Level FlightAware
04:47PM 34.8850 -77.6740 196° South 470 541 38,000  Level FlightAware
04:48PM 34.8000 -77.7040 196° South 470 541 38,000  Level FlightAware
04:48PM 34.7360 -77.7260 196° South 470 541 38,000  Level FlightAware
04:49PM 34.6500 -77.7560 196° South 470 541 38,000  Level FlightAware
04:50PM 34.3714 -77.8717 196° South 475 547 38,000  Level Washington Center
04:51PM 34.2392 -77.9106 194° South 482 555 38,000  Level Washington Center
04:53PM 33.9600 -77.9853 193° South 495 570 38,000  Level Jacksonville Center
04:54PM 33.8281 -78.0253 194° South 488 562 38,000  Level Jacksonville Center
04:55PM 33.7022 -78.0622 194° South 471 542 38,000  Level Jacksonville Center
04:56PM 33.5867 -78.0958 194° South 469 540 38,000  Level Jacksonville Center
04:57PM 33.4586 -78.1328 194° South 469 540 38,000  Level Jacksonville Center
04:58PM 33.3328 -78.1667 193° South 469 540 38,000  Level Jacksonville Center
04:59PM 33.2044 -78.2008 193° South 469 540 38,000  Level Jacksonville Center
05:00PM 33.0767 -78.2397 194° South 469 540 38,000  Level Jacksonville Center
05:01PM 32.9506 -78.2736 193° South 469 540 38,000  Level Jacksonville Center
05:02PM 32.8203 -78.3075 192° South 469 540 38,000  Level Jacksonville Center
05:03PM 32.6942 -78.3433 193° South 469 540 38,000  Level Jacksonville Center
05:04PM 32.5725 -78.3792 194° South 469 540 38,000  Level Jacksonville Center
05:05PM 32.4483 -78.4125 193° South 469 540 38,000  Level Jacksonville Center
05:06PM 32.3081 -78.4611 196° South 469 540 38,000  Level Jacksonville Center
05:07PM 32.1822 -78.4967 193° South 470 541 38,000  Level Jacksonville Center
05:08PM 32.0581 -78.5294 193° South 470 541 38,000  Level Jacksonville Center
05:09PM 31.9319 -78.5697 195° South 470 541 38,000  Level Jacksonville Center
05:10PM 31.8058 -78.6050 193° South 470 541 38,000  Level Jacksonville Center
05:11PM 31.6839 -78.6400 194° South 465 535 38,000  Level Jacksonville Center
05:12PM 31.5600 -78.6797 195° South 465 535 38,000  Level Jacksonville Center
05:13PM 31.4358 -78.7122 193° South 472 543 38,000  Level Jacksonville Center
05:14PM 31.3139 -78.7492 195° South 467 537 38,000  Level Jacksonville Center
05:15PM 31.1875 -78.7789 191° South 466 536 38,000  Level Jacksonville Center
05:16PM 31.0614 -78.8186 195° South 468 539 38,000  Level Jacksonville Center
05:17PM 30.9394 -78.8528 194° South 467 537 38,000  Level Jacksonville Center
05:18PM 30.8172 -78.8869 194° South 467 537 38,000  Level Jacksonville Center
05:19PM 30.7075 -78.9158 193° South 451 519 38,000  Level Jacksonville Center
05:20PM 30.6153 -78.9422 194° South 448 516 38,000  Level Miami Center
05:21PM 30.4939 -78.9758 193° South 431 496 38,000  Level Miami Center
05:22PM 30.3703 -79.0167 196° South 441 507 38,000  Level Miami Center
05:23PM 30.2467 -79.0694 200° South 458 527 38,000  Level Miami Center
05:24PM 30.1331 -79.1200 201° Southwest 458 527 38,000  Level Miami Center
05:25PM 30.0386 -79.1611 201° Southwest 463 533 38,000  Level Miami Center
05:26PM 29.9083 -79.2228 202° Southwest 458 527 38,000  Level Miami Center
05:27PM 29.7928 -79.2778 202° Southwest 453 521 38,000  Level Miami Center
05:28PM 29.6731 -79.3228 198° South 458 527 38,000  Level Miami Center
05:29PM 29.5594 -79.3797 204° Southwest 453 521 38,000  Level Miami Center
05:30PM 29.4400 -79.4200 196° South 453 521 38,000  Level Miami Center
05:36PM 28.7830 -79.6600 196° South 424 488 38,000  Level FlightAware
05:37PM 28.6650 -79.7030 198° South 424 488 38,000  Level FlightAware
05:37PM 28.5740 -79.7580 208° Southwest 431 496 38,000  Level FlightAware
05:38PM 28.4840 -79.8100 207° Southwest 431 496 38,000  Level FlightAware
05:39PM 28.4100 -79.8530 207° Southwest 431 496 38,000  Level FlightAware
05:39PM 28.3490 -79.8890 207° Southwest 422 486 38,000  Level FlightAware
05:40PM 28.2710 -79.9350 207° Southwest 421 484 38,000  Level FlightAware
05:41PM 28.1580 -80.0040 208° Southwest 426 490 38,000  Level FlightAware
05:42PM 28.0890 -80.0470 209° Southwest 429 494 38,000  Level FlightAware
05:43PM 28.0080 -80.0980 209° Southwest 431 496 38,000  Level FlightAware
05:43PM 27.9450 -80.1390 210° Southwest 438 504 38,000  Level FlightAware
05:44PM 27.8590 -80.1720 199° South 429 494 38,000  Level FlightAware
05:45PM 27.7790 -80.1970 195° South 433 498 38,000  Level FlightAware
05:45PM 27.6900 -80.2230 195° South 436 502 38,000  Level FlightAware
05:46PM 27.6190 -80.2450 195° South 436 502 38,000  Level FlightAware
05:47PM 27.5420 -80.2680 195° South 437 503 38,000  Level FlightAware
05:48PM 27.4220 -80.3040 195° South 437 503 38,000  Level FlightAware
05:48PM 27.3510 -80.3250 195° South 433 498 38,000  Level FlightAware
05:49PM 27.2760 -80.3480 195° South 434 499 38,000  Level FlightAware
05:50PM 27.2030 -80.3700 195° South 434 499 38,000  Level FlightAware
05:50PM 27.1430 -80.3880 195° South 434 499 38,000  Level FlightAware
05:51PM 27.0640 -80.4110 195° South 434 499 38,000  Level FlightAware
05:52PM 26.9430 -80.4470 195° South 434 499 38,000  Level FlightAware
05:53PM 26.8560 -80.4730 195° South 434 499 38,000  Level FlightAware
05:53PM 26.7960 -80.4910 195° South 434 499 38,000  Level FlightAware
05:54PM 26.7170 -80.5150 195° South 434 499 38,000  Level FlightAware
05:55PM 26.5530 -80.5620 194° South 431 496 38,000  Level FlightAware
05:56PM 26.4740 -80.5850 195° South 433 498 38,000  Level FlightAware
05:56PM 26.3950 -80.6090 195° South 430 495 38,000  Level FlightAware
05:57PM 26.3070 -80.6340 194° South 433 498 38,000  Level FlightAware
05:58PM 26.2490 -80.6520 196° South 433 498 38,000  Level FlightAware
05:59PM 26.1320 -80.6860 195° South 433 498 38,000  Level FlightAware
05:59PM 26.0340 -80.7150 195° South 431 496 38,000  Level FlightAware
06:00PM 25.9640 -80.7350 194° South 440 506 38,000  Level FlightAware
06:01PM 25.8930 -80.7560 195° South 433 498 38,000  Level FlightAware
06:01PM 25.7940 -80.7840 194° South 436 502 38,000  Level FlightAware
06:02PM 25.7220 -80.8050 195° South 446 513 38,000  Level FlightAware
06:03PM 25.6430 -80.8280 195° South 446 513 38,000  Level FlightAware
06:03PM 25.5620 -80.8510 194° South 434 499 38,000  Level FlightAware
06:04PM 25.4730 -80.8770 195° South 431 496 38,000  Level FlightAware
06:05PM 25.3930 -80.9000 195° South 436 502 38,000  Level FlightAware
06:05PM 25.3170 -80.9220 195° South 436 502 38,000  Level FlightAware
06:06PM 25.2340 -80.9630 204° Southwest 420 483 38,000  Level FlightAware
06:07PM 25.1720 -81.0270 223° Southwest 424 488 38,000  Level FlightAware
06:08PM 25.1190 -81.0960 230° Southwest 425 489 38,000  Level FlightAware
06:08PM 25.0680 -81.1620 230° Southwest 429 494 38,000 -480 Level FlightAware
06:09PM 25.0150 -81.2300 229° Southwest 429 494 37,400 -1,020 Descending FlightAware
06:10PM 24.9580 -81.3040 230° Southwest 430 495 36,600 -1,140 Descending FlightAware
06:10PM 24.9030 -81.3740 229° Southwest 435 501 35,700 -1,020 Descending FlightAware
06:11PM 24.8620 -81.4270 230° Southwest 441 507 35,100 -1,200 Descending FlightAware
06:12PM 24.7780 -81.5350 229° Southwest 445 512 33,900 -1,380 Descending FlightAware
06:13PM 24.7230 -81.6050 229° Southwest 442 509 33,200 -1,260 Descending FlightAware
06:13PM 24.6750 -81.6660 229° Southwest 433 498 32,300 -1,620 Descending FlightAware
06:14PM 24.6160 -81.7410 229° Southwest 426 490 31,100 -840 Descending FlightAware
06:16PM 24.5070 -81.8800 229° Southwest 423 487 30,400 -1,260 Descending FlightAware
06:17PM 24.4200 -81.9900 229° Southwest 408 470 27,500 -2,220 Descending FlightAware
06:17PM 24.3560 -82.0710 229° Southwest 399 459 26,400 -1,620 Descending FlightAware
06:18PM 24.3000 -82.1420 229° Southwest 398 458 25,400 -840 Descending FlightAware
06:19PM 24.2640 -82.1880 229° Southwest 397 457 25,300 -840 Descending FlightAware
06:20PM 24.1940 -82.2760 229° Southwest 378 435 24,100 -720 Descending FlightAware
06:21PM 24.1490 -82.3360 231° Southwest 378 435 24,100 -840 Level FlightAware
06:21PM 24.0980 -82.3960 227° Southwest 374 430 22,900 -960 Descending FlightAware
06:22PM 24.0640 -82.4400 230° Southwest 374 430 22,900  Level FlightAware
06:23PM 24.0170 -82.4980 228° Southwest 374 430 22,900  Level FlightAware
06:23PM 23.9820 -82.5430 230° Southwest 374 430 22,900  Level FlightAware
06:24PM 23.9350 -82.6010 228° Southwest 374 430 22,900  Level FlightAware
06:25PM 23.8990 -82.6460 229° Southwest 374 430 22,900  Level FlightAware
06:29PM 23.4665 -82.5330 172° South  Level Estimated
06:30PM 23.3552 -82.5040 175° South  Level Estimated
06:31PM 23.2561 -82.4415 150° Southeast  Level FlightAware Approximate
06:32PM 23.1423 -82.4277 170° South  Level Estimated
06:33PM 23.0285 -82.4138 180° South  Level Estimated
06:34PM 22.9891 -82.4091 180° South  Level Estimated
06:35PM 22.9891 -82.4091 180° South  Level Estimated
06:36PM 22.9891 -82.4091 180° South  Level Estimated
06:37PM 22.9891 -82.4091 180° South  Level Estimated
06:38PM 22.9891 -82.4091 180° South  Level Estimated
06:39PM 22.9891 -82.4091 180° South  Level Estimated
06:40PM 22.9891 -82.4091 180° South  Level Estimated
06:41PM 22.9891 -82.4091 180° South  Level Estimated
06:42PM 22.9891 -82.4091 180° South  Level Estimated
06:43PM 22.9891 -82.4091 180° South  Level Estimated
06:44PM 22.9891 -82.4091 180° South  Level Estimated
06:45PM 22.9891 -82.4091 180° South  Level Estimated
06:46PM 22.9891 -82.4091 180° South  Level Estimated
06:47PM 22.9891 -82.4091 180° South  Level Estimated
06:48PM 22.9891 -82.4091 180° South  Level Estimated
06:49PM 22.9891 -82.4091 180° South  Level Estimated
06:50PM 22.9891 -82.4091 180° South  Level Estimated
06:51PM 22.9891 -82.4091 180° South  Level Estimated